sensor_id;sensor_type;location;lat;lon;timestamp;P1;durP1;ratioP1;P2;durP2;ratioP2
4430;SDS011;2228;48.140;11.488;2024-03-23T08:40:26;3.90;;;2.38;;
4430;SDS011;2228;48.140;11.488;2024-03-23T08:42:53;5.95;;;2.92;;
4430;SDS011;2228;48.140;11.488;2024-03-23T08:45:19;4.05;;;2.50;;
4430;SDS011;2228;48.140;11.488;2024-03-23T08:47:46;4.57;;;2.08;;
4430;SDS011;2228;48.140;11.488;2024-03-23T08:50:13;3.53;;;2.30;;
4430;SDS011;2228;48.140;11.488;2024-03-23T08:52:40;6.73;;;3.10;;
4430;SDS011;2228;48.140;11.488;2024-03-23T08:55:06;4.90;;;2.50;;
4430;SDS011;2228;48.140;11.488;2024-03-23T08:57:36;5.85;;;2.88;;
4430;SDS011;2228;48.140;11.488;2024-03-23T09:00:02;6.20;;;2.60;;
4430;SDS011;2228;48.140;11.488;2024-03-23T09:02:31;4.47;;;2.60;;
4430;SDS011;2228;48.140;11.488;2024-03-23T09:04:57;6.93;;;2.83;;
4430;SDS011;2228;48.140;11.488;2024-03-23T09:07:29;7.28;;;2.92;;
4430;SDS011;2228;48.140;11.488;2024-03-23T09:09:55;6.20;;;3.10;;
4430;SDS011;2228;48.140;11.488;2024-03-23T09:12:22;4.87;;;3.10;;
4430;SDS011;2228;48.140;11.488;2024-03-23T09:14:50;6.90;;;3.80;;
4430;SDS011;2228;48.140;11.488;2024-03-23T09:17:18;5.30;;;2.80;;
4430;SDS011;2228;48.140;11.488;2024-03-23T09:19:44;6.10;;;3.10;;
4430;SDS011;2228;48.140;11.488;2024-03-23T09:22:11;7.57;;;3.50;;
4430;SDS011;2228;48.140;11.488;2024-03-23T09:24:38;3.88;;;2.60;;
4430;SDS011;2228;48.140;11.488;2024-03-23T09:27:05;4.22;;;2.75;;
4430;SDS011;2228;48.140;11.488;2024-03-23T09:29:32;5.80;;;2.90;;
4430;SDS011;2228;48.140;11.488;2024-03-23T09:32:00;4.60;;;2.70;;
4430;SDS011;2228;48.140;11.488;2024-03-23T09:34:26;3.35;;;2.20;;
4430;SDS011;2228;48.140;11.488;2024-03-23T09:36:53;4.18;;;2.00;;
4430;SDS011;2228;48.140;11.488;2024-03-23T09:39:20;2.60;;;2.10;;
4430;SDS011;2228;48.140;11.488;2024-03-23T09:41:47;1.50;;;1.10;;
4430;SDS011;2228;48.140;11.488;2024-03-23T09:44:13;2.10;;;1.20;;
4430;SDS011;2228;48.140;11.488;2024-03-23T09:46:40;1.90;;;1.10;;
4430;SDS011;2228;48.140;11.488;2024-03-23T09:49:08;1.70;;;1.00;;
4430;SDS011;2228;48.140;11.488;2024-03-23T09:51:35;2.13;;;1.30;;
4430;SDS011;2228;48.140;11.488;2024-03-23T09:54:02;2.17;;;1.10;;
4430;SDS011;2228;48.140;11.488;2024-03-23T09:56:29;1.60;;;1.00;;
4430;SDS011;2228;48.140;11.488;2024-03-23T09:59:00;1.30;;;0.90;;
4430;SDS011;2228;48.140;11.488;2024-03-23T10:01:29;1.98;;;0.90;;
4430;SDS011;2228;48.140;11.488;2024-03-23T10:03:55;1.35;;;0.80;;
4430;SDS011;2228;48.140;11.488;2024-03-23T10:06:24;1.55;;;1.05;;
4430;SDS011;2228;48.140;11.488;2024-03-23T10:08:50;2.53;;;1.30;;
4430;SDS011;2228;48.140;11.488;2024-03-23T10:11:20;2.35;;;1.10;;
4430;SDS011;2228;48.140;11.488;2024-03-23T10:13:46;2.90;;;1.45;;
4430;SDS011;2228;48.140;11.488;2024-03-23T10:16:20;1.80;;;1.30;;
4430;SDS011;2228;48.140;11.488;2024-03-23T10:18:47;1.60;;;1.00;;
4430;SDS011;2228;48.140;11.488;2024-03-23T10:21:15;1.70;;;1.13;;
4430;SDS011;2228;48.140;11.488;2024-03-23T10:23:43;2.70;;;1.00;;
4430;SDS011;2228;48.140;11.488;2024-03-23T10:26:14;1.65;;;1.00;;
4430;SDS011;2228;48.140;11.488;2024-03-23T10:28:56;3.80;;;1.33;;
4430;SDS011;2228;48.140;11.488;2024-03-23T10:31:26;1.80;;;1.00;;
4430;SDS011;2228;48.140;11.488;2024-03-23T10:33:53;4.90;;;1.80;;
4430;SDS011;2228;48.140;11.488;2024-03-23T10:36:20;2.08;;;1.17;;
4430;SDS011;2228;48.140;11.488;2024-03-23T10:38:49;5.80;;;1.30;;
4430;SDS011;2228;48.140;11.488;2024-03-23T10:41:16;1.23;;;0.90;;
4430;SDS011;2228;48.140;11.488;2024-03-23T10:43:43;1.70;;;0.70;;
4430;SDS011;2228;48.140;11.488;2024-03-23T10:46:12;1.27;;;0.85;;
4430;SDS011;2228;48.140;11.488;2024-03-23T10:48:38;3.63;;;1.00;;
4430;SDS011;2228;48.140;11.488;2024-03-23T10:51:06;2.38;;;1.00;;
4430;SDS011;2228;48.140;11.488;2024-03-23T10:53:33;2.90;;;0.85;;
4430;SDS011;2228;48.140;11.488;2024-03-23T10:56:04;2.00;;;1.02;;
4430;SDS011;2228;48.140;11.488;2024-03-23T10:58:31;2.73;;;0.90;;
4430;SDS011;2228;48.140;11.488;2024-03-23T11:00:58;2.40;;;1.40;;
4430;SDS011;2228;48.140;11.488;2024-03-23T11:03:31;2.92;;;1.42;;
4430;SDS011;2228;48.140;11.488;2024-03-23T11:05:59;2.20;;;1.30;;
4430;SDS011;2228;48.140;11.488;2024-03-23T11:08:30;4.20;;;1.30;;
4430;SDS011;2228;48.140;11.488;2024-03-23T11:11:15;2.90;;;1.70;;
4430;SDS011;2228;48.140;11.488;2024-03-23T11:13:43;1.77;;;1.00;;
4430;SDS011;2228;48.140;11.488;2024-03-23T11:16:16;4.30;;;1.30;;
4430;SDS011;2228;48.140;11.488;2024-03-23T11:18:43;1.50;;;0.90;;
4430;SDS011;2228;48.140;11.488;2024-03-23T11:21:11;6.33;;;1.40;;
4430;SDS011;2228;48.140;11.488;2024-03-23T11:26:40;3.85;;;1.50;;
4430;SDS011;2228;48.140;11.488;2024-03-23T11:29:09;4.68;;;1.70;;
4430;SDS011;2228;48.140;11.488;2024-03-23T11:31:37;3.30;;;1.92;;
4430;SDS011;2228;48.140;11.488;2024-03-23T11:34:03;4.40;;;2.30;;
4430;SDS011;2228;48.140;11.488;2024-03-23T11:36:31;7.47;;;3.15;;
4430;SDS011;2228;48.140;11.488;2024-03-23T11:38:57;4.63;;;1.70;;
4430;SDS011;2228;48.140;11.488;2024-03-23T11:41:24;3.15;;;1.38;;
4430;SDS011;2228;48.140;11.488;2024-03-23T11:43:52;1.67;;;1.00;;
4430;SDS011;2228;48.140;11.488;2024-03-23T11:46:22;3.08;;;1.52;;
4430;SDS011;2228;48.140;11.488;2024-03-23T11:48:49;3.90;;;1.60;;
4430;SDS011;2228;48.140;11.488;2024-03-23T11:51:17;2.20;;;1.20;;
4430;SDS011;2228;48.140;11.488;2024-03-23T11:53:43;2.40;;;0.90;;
4430;SDS011;2228;48.140;11.488;2024-03-23T11:56:10;2.05;;;1.38;;
4430;SDS011;2228;48.140;11.488;2024-03-23T11:58:36;3.85;;;1.60;;
4430;SDS011;2228;48.140;11.488;2024-03-23T12:01:05;3.95;;;1.20;;
4430;SDS011;2228;48.140;11.488;2024-03-23T12:03:36;3.80;;;1.80;;
4430;SDS011;2228;48.140;11.488;2024-03-23T12:06:03;4.13;;;1.33;;
4430;SDS011;2228;48.140;11.488;2024-03-23T12:08:31;4.82;;;1.30;;
4430;SDS011;2228;48.140;11.488;2024-03-23T12:11:06;5.65;;;2.38;;
4430;SDS011;2228;48.140;11.488;2024-03-23T12:13:32;8.10;;;3.60;;
4430;SDS011;2228;48.140;11.488;2024-03-23T12:16:10;4.70;;;1.50;;
4430;SDS011;2228;48.140;11.488;2024-03-23T12:18:36;5.00;;;2.20;;
4430;SDS011;2228;48.140;11.488;2024-03-23T12:21:04;5.88;;;1.60;;
4430;SDS011;2228;48.140;11.488;2024-03-23T12:23:31;7.90;;;2.67;;
4430;SDS011;2228;48.140;11.488;2024-03-23T12:25:58;6.95;;;2.72;;
4430;SDS011;2228;48.140;11.488;2024-03-23T12:28:24;3.40;;;1.50;;
4430;SDS011;2228;48.140;11.488;2024-03-23T12:30:52;3.20;;;1.70;;
4430;SDS011;2228;48.140;11.488;2024-03-23T12:33:20;4.90;;;1.77;;
4430;SDS011;2228;48.140;11.488;2024-03-23T12:35:47;2.50;;;1.30;;
4430;SDS011;2228;48.140;11.488;2024-03-23T12:38:14;5.00;;;2.05;;
4430;SDS011;2228;48.140;11.488;2024-03-23T12:40:41;8.93;;;2.58;;
4430;SDS011;2228;48.140;11.488;2024-03-23T12:43:07;2.83;;;1.30;;
4430;SDS011;2228;48.140;11.488;2024-03-23T12:45:34;6.05;;;2.50;;
4430;SDS011;2228;48.140;11.488;2024-03-23T12:48:00;4.80;;;2.33;;
4430;SDS011;2228;48.140;11.488;2024-03-23T12:50:29;5.65;;;2.00;;
4430;SDS011;2228;48.140;11.488;2024-03-23T12:52:55;6.45;;;2.70;;
4430;SDS011;2228;48.140;11.488;2024-03-23T12:55:23;6.60;;;2.30;;
4430;SDS011;2228;48.140;11.488;2024-03-23T12:57:49;5.35;;;2.75;;
4430;SDS011;2228;48.140;11.488;2024-03-23T13:00:16;5.20;;;2.00;;
4430;SDS011;2228;48.140;11.488;2024-03-23T13:02:42;5.70;;;2.30;;
4430;SDS011;2228;48.140;11.488;2024-03-23T13:05:10;5.22;;;2.10;;
4430;SDS011;2228;48.140;11.488;2024-03-23T13:07:37;5.07;;;1.45;;
4430;SDS011;2228;48.140;11.488;2024-03-23T13:10:05;2.83;;;1.35;;
4430;SDS011;2228;48.140;11.488;2024-03-23T13:12:31;3.67;;;1.80;;
4430;SDS011;2228;48.140;11.488;2024-03-23T13:14:59;4.82;;;1.70;;
4430;SDS011;2228;48.140;11.488;2024-03-23T13:17:26;2.45;;;1.30;;
4430;SDS011;2228;48.140;11.488;2024-03-23T13:19:54;3.97;;;1.70;;
4430;SDS011;2228;48.140;11.488;2024-03-23T13:22:20;3.50;;;1.50;;
4430;SDS011;2228;48.140;11.488;2024-03-23T13:24:49;3.83;;;1.63;;
4430;SDS011;2228;48.140;11.488;2024-03-23T13:27:15;3.90;;;1.85;;
4430;SDS011;2228;48.140;11.488;2024-03-23T13:29:43;5.13;;;1.90;;
4430;SDS011;2228;48.140;11.488;2024-03-23T13:32:11;5.72;;;1.90;;
4430;SDS011;2228;48.140;11.488;2024-03-23T13:34:38;5.28;;;1.83;;
4430;SDS011;2228;48.140;11.488;2024-03-23T13:37:05;4.90;;;1.80;;
4430;SDS011;2228;48.140;11.488;2024-03-23T13:39:33;6.75;;;1.85;;
4430;SDS011;2228;48.140;11.488;2024-03-23T13:42:00;10.77;;;2.58;;
4430;SDS011;2228;48.140;11.488;2024-03-23T13:44:28;2.75;;;1.60;;
4430;SDS011;2228;48.140;11.488;2024-03-23T13:46:54;5.47;;;1.80;;
4430;SDS011;2228;48.140;11.488;2024-03-23T13:49:26;4.53;;;1.70;;
4430;SDS011;2228;48.140;11.488;2024-03-23T13:51:53;10.27;;;2.70;;
4430;SDS011;2228;48.140;11.488;2024-03-23T13:54:20;10.23;;;3.25;;
4430;SDS011;2228;48.140;11.488;2024-03-23T13:56:47;8.02;;;2.80;;
4430;SDS011;2228;48.140;11.488;2024-03-23T13:59:16;5.95;;;2.63;;
4430;SDS011;2228;48.140;11.488;2024-03-23T14:01:42;7.10;;;3.40;;
4430;SDS011;2228;48.140;11.488;2024-03-23T14:04:10;4.07;;;2.22;;
4430;SDS011;2228;48.140;11.488;2024-03-23T14:06:36;9.50;;;3.25;;
4430;SDS011;2228;48.140;11.488;2024-03-23T14:09:04;7.65;;;2.92;;
4430;SDS011;2228;48.140;11.488;2024-03-23T14:11:30;11.63;;;3.90;;
4430;SDS011;2228;48.140;11.488;2024-03-23T14:13:57;9.27;;;3.00;;
4430;SDS011;2228;48.140;11.488;2024-03-23T14:16:25;8.52;;;3.35;;
4430;SDS011;2228;48.140;11.488;2024-03-23T14:18:53;8.60;;;3.20;;
4430;SDS011;2228;48.140;11.488;2024-03-23T14:21:19;6.15;;;3.00;;
4430;SDS011;2228;48.140;11.488;2024-03-23T14:23:46;9.52;;;3.42;;
4430;SDS011;2228;48.140;11.488;2024-03-23T14:26:12;11.00;;;3.00;;
4430;SDS011;2228;48.140;11.488;2024-03-23T14:28:39;6.30;;;2.97;;
4430;SDS011;2228;48.140;11.488;2024-03-23T14:31:06;7.85;;;3.15;;
4430;SDS011;2228;48.140;11.488;2024-03-23T14:33:37;8.30;;;3.10;;
4430;SDS011;2228;48.140;11.488;2024-03-23T14:36:04;7.80;;;2.60;;
4430;SDS011;2228;48.140;11.488;2024-03-23T14:38:31;5.78;;;2.40;;
4430;SDS011;2228;48.140;11.488;2024-03-23T14:40:57;9.00;;;2.22;;
4430;SDS011;2228;48.140;11.488;2024-03-23T14:43:26;8.63;;;1.83;;
4430;SDS011;2228;48.140;11.488;2024-03-23T14:46:05;8.35;;;1.80;;
4430;SDS011;2228;48.140;11.488;2024-03-23T14:48:33;5.90;;;2.00;;
4430;SDS011;2228;48.140;11.488;2024-03-23T14:51:01;6.07;;;2.00;;
4430;SDS011;2228;48.140;11.488;2024-03-23T14:53:30;8.35;;;1.92;;
4430;SDS011;2228;48.140;11.488;2024-03-23T14:55:57;5.25;;;1.70;;
4430;SDS011;2228;48.140;11.488;2024-03-23T14:58:25;4.93;;;1.98;;
4430;SDS011;2228;48.140;11.488;2024-03-23T15:00:51;3.13;;;1.35;;
4430;SDS011;2228;48.140;11.488;2024-03-23T15:03:18;3.60;;;1.60;;
4430;SDS011;2228;48.140;11.488;2024-03-23T15:05:54;5.60;;;2.00;;
4430;SDS011;2228;48.140;11.488;2024-03-23T15:08:23;4.60;;;1.90;;
4430;SDS011;2228;48.140;11.488;2024-03-23T15:10:49;5.53;;;1.92;;
4430;SDS011;2228;48.140;11.488;2024-03-23T15:13:17;5.15;;;2.00;;
4430;SDS011;2228;48.140;11.488;2024-03-23T15:15:44;5.40;;;1.90;;
4430;SDS011;2228;48.140;11.488;2024-03-23T15:18:10;8.05;;;2.63;;
4430;SDS011;2228;48.140;11.488;2024-03-23T15:20:40;4.47;;;1.98;;
4430;SDS011;2228;48.140;11.488;2024-03-23T15:23:06;5.45;;;1.80;;
4430;SDS011;2228;48.140;11.488;2024-03-23T15:25:34;8.00;;;2.50;;
4430;SDS011;2228;48.140;11.488;2024-03-23T15:28:01;5.03;;;2.40;;
4430;SDS011;2228;48.140;11.488;2024-03-23T15:30:28;6.57;;;2.20;;
4430;SDS011;2228;48.140;11.488;2024-03-23T15:32:54;7.22;;;2.20;;
4430;SDS011;2228;48.140;11.488;2024-03-23T15:35:22;4.13;;;2.17;;
4430;SDS011;2228;48.140;11.488;2024-03-23T15:37:48;5.60;;;1.80;;
4430;SDS011;2228;48.140;11.488;2024-03-23T15:40:16;4.30;;;2.15;;
4430;SDS011;2228;48.140;11.488;2024-03-23T15:42:43;9.75;;;1.95;;
4430;SDS011;2228;48.140;11.488;2024-03-23T15:45:11;4.72;;;1.83;;
4430;SDS011;2228;48.140;11.488;2024-03-23T15:47:37;6.93;;;2.50;;
4430;SDS011;2228;48.140;11.488;2024-03-23T15:50:05;8.95;;;2.60;;
4430;SDS011;2228;48.140;11.488;2024-03-23T15:52:33;8.85;;;2.70;;
4430;SDS011;2228;48.140;11.488;2024-03-23T15:55:01;4.60;;;2.10;;
4430;SDS011;2228;48.140;11.488;2024-03-23T15:57:30;6.13;;;2.05;;
4430;SDS011;2228;48.140;11.488;2024-03-23T15:59:59;7.03;;;2.10;;
4430;SDS011;2228;48.140;11.488;2024-03-23T16:02:26;4.82;;;1.77;;
4430;SDS011;2228;48.140;11.488;2024-03-23T16:04:54;3.90;;;1.70;;
4430;SDS011;2228;48.140;11.488;2024-03-23T16:07:20;5.32;;;2.00;;
4430;SDS011;2228;48.140;11.488;2024-03-23T16:09:47;10.98;;;2.50;;
4430;SDS011;2228;48.140;11.488;2024-03-23T16:12:13;8.40;;;2.67;;
4430;SDS011;2228;48.140;11.488;2024-03-23T16:14:41;5.47;;;2.40;;
4430;SDS011;2228;48.140;11.488;2024-03-23T16:17:09;5.10;;;2.65;;
4430;SDS011;2228;48.140;11.488;2024-03-23T16:19:36;6.80;;;2.10;;
4430;SDS011;2228;48.140;11.488;2024-03-23T16:22:02;7.13;;;2.30;;
4430;SDS011;2228;48.140;11.488;2024-03-23T16:24:29;7.28;;;2.60;;
4430;SDS011;2228;48.140;11.488;2024-03-23T16:26:56;6.78;;;2.15;;
4430;SDS011;2228;48.140;11.488;2024-03-23T16:29:26;8.00;;;2.70;;
4430;SDS011;2228;48.140;11.488;2024-03-23T16:31:52;7.25;;;2.05;;
4430;SDS011;2228;48.140;11.488;2024-03-23T16:34:21;5.70;;;1.95;;
4430;SDS011;2228;48.140;11.488;2024-03-23T16:36:47;8.30;;;2.17;;
4430;SDS011;2228;48.140;11.488;2024-03-23T16:39:17;6.13;;;2.10;;
4430;SDS011;2228;48.140;11.488;2024-03-23T16:41:43;4.40;;;1.90;;
4430;SDS011;2228;48.140;11.488;2024-03-23T16:44:10;5.45;;;2.70;;
4430;SDS011;2228;48.140;11.488;2024-03-23T16:46:37;6.68;;;2.15;;
4430;SDS011;2228;48.140;11.488;2024-03-23T16:49:05;8.10;;;2.47;;
4430;SDS011;2228;48.140;11.488;2024-03-23T16:51:33;5.78;;;2.10;;
4430;SDS011;2228;48.140;11.488;2024-03-23T16:54:00;9.73;;;3.45;;
4430;SDS011;2228;48.140;11.488;2024-03-23T16:56:26;6.88;;;3.58;;
4430;SDS011;2228;48.140;11.488;2024-03-23T16:58:53;6.57;;;3.20;;
4430;SDS011;2228;48.140;11.488;2024-03-23T17:01:20;7.93;;;2.90;;
4430;SDS011;2228;48.140;11.488;2024-03-23T17:03:49;7.75;;;3.20;;
4430;SDS011;2228;48.140;11.488;2024-03-23T17:06:16;6.95;;;2.90;;
4430;SDS011;2228;48.140;11.488;2024-03-23T17:08:45;6.80;;;3.10;;
4430;SDS011;2228;48.140;11.488;2024-03-23T17:11:12;6.88;;;2.40;;
4430;SDS011;2228;48.140;11.488;2024-03-23T17:13:39;5.30;;;1.95;;
4430;SDS011;2228;48.140;11.488;2024-03-23T17:16:07;3.90;;;1.60;;
4430;SDS011;2228;48.140;11.488;2024-03-23T17:18:35;4.70;;;1.50;;
4430;SDS011;2228;48.140;11.488;2024-03-23T17:21:02;6.75;;;1.48;;
4430;SDS011;2228;48.140;11.488;2024-03-23T17:23:31;4.30;;;2.60;;
4430;SDS011;2228;48.140;11.488;2024-03-23T17:25:59;4.10;;;1.98;;
4430;SDS011;2228;48.140;11.488;2024-03-23T17:28:28;4.13;;;1.40;;
4430;SDS011;2228;48.140;11.488;2024-03-23T17:30:54;3.30;;;1.40;;
4430;SDS011;2228;48.140;11.488;2024-03-23T17:33:24;6.03;;;1.80;;
4430;SDS011;2228;48.140;11.488;2024-03-23T17:35:51;4.47;;;1.55;;
4430;SDS011;2228;48.140;11.488;2024-03-23T17:38:18;5.40;;;1.60;;
4430;SDS011;2228;48.140;11.488;2024-03-23T17:40:44;3.75;;;1.13;;
4430;SDS011;2228;48.140;11.488;2024-03-23T17:43:14;6.30;;;1.40;;
4430;SDS011;2228;48.140;11.488;2024-03-23T17:45:40;4.90;;;1.52;;
4430;SDS011;2228;48.140;11.488;2024-03-23T17:48:07;5.93;;;1.80;;
4430;SDS011;2228;48.140;11.488;2024-03-23T17:50:34;4.40;;;1.40;;
4430;SDS011;2228;48.140;11.488;2024-03-23T17:53:01;6.53;;;1.70;;
4430;SDS011;2228;48.140;11.488;2024-03-23T17:55:27;3.10;;;1.43;;
4430;SDS011;2228;48.140;11.488;2024-03-23T17:57:54;3.28;;;1.45;;
4430;SDS011;2228;48.140;11.488;2024-03-23T18:00:24;5.65;;;1.70;;
4430;SDS011;2228;48.140;11.488;2024-03-23T18:02:51;5.60;;;2.50;;
4430;SDS011;2228;48.140;11.488;2024-03-23T18:05:17;4.05;;;1.60;;
4430;SDS011;2228;48.140;11.488;2024-03-23T18:07:46;4.43;;;1.70;;
4430;SDS011;2228;48.140;11.488;2024-03-23T18:10:13;4.88;;;1.40;;
4430;SDS011;2228;48.140;11.488;2024-03-23T18:12:40;2.90;;;1.20;;
4430;SDS011;2228;48.140;11.488;2024-03-23T18:15:07;7.22;;;2.80;;
4430;SDS011;2228;48.140;11.488;2024-03-23T18:17:35;3.20;;;1.42;;
4430;SDS011;2228;48.140;11.488;2024-03-23T18:20:02;6.55;;;1.40;;
4430;SDS011;2228;48.140;11.488;2024-03-23T18:22:30;3.40;;;1.73;;
4430;SDS011;2228;48.140;11.488;2024-03-23T18:24:56;2.70;;;1.23;;
4430;SDS011;2228;48.140;11.488;2024-03-23T18:27:24;1.63;;;0.90;;
4430;SDS011;2228;48.140;11.488;2024-03-23T18:29:51;3.35;;;1.48;;
4430;SDS011;2228;48.140;11.488;2024-03-23T18:32:18;4.82;;;1.42;;
4430;SDS011;2228;48.140;11.488;2024-03-23T18:34:45;6.03;;;1.30;;
4430;SDS011;2228;48.140;11.488;2024-03-23T18:37:13;4.15;;;1.40;;
4430;SDS011;2228;48.140;11.488;2024-03-23T18:39:39;3.67;;;1.30;;
4430;SDS011;2228;48.140;11.488;2024-03-23T18:42:06;2.55;;;1.52;;
4430;SDS011;2228;48.140;11.488;2024-03-23T18:44:32;2.22;;;0.90;;
4430;SDS011;2228;48.140;11.488;2024-03-23T18:47:00;3.65;;;1.10;;
4430;SDS011;2228;48.140;11.488;2024-03-23T18:49:26;3.07;;;1.47;;
4430;SDS011;2228;48.140;11.488;2024-03-23T18:51:55;5.95;;;1.40;;
4430;SDS011;2228;48.140;11.488;2024-03-23T18:54:21;3.50;;;1.20;;
4430;SDS011;2228;48.140;11.488;2024-03-23T18:56:48;5.20;;;1.40;;
4430;SDS011;2228;48.140;11.488;2024-03-23T18:59:14;3.67;;;1.30;;
4430;SDS011;2228;48.140;11.488;2024-03-23T19:01:41;6.15;;;1.50;;
4430;SDS011;2228;48.140;11.488;2024-03-23T19:04:08;3.90;;;1.80;;
4430;SDS011;2228;48.140;11.488;2024-03-23T19:06:35;5.20;;;1.92;;
4430;SDS011;2228;48.140;11.488;2024-03-23T19:09:03;4.90;;;1.53;;
4430;SDS011;2228;48.140;11.488;2024-03-23T19:11:30;3.10;;;1.60;;
4430;SDS011;2228;48.140;11.488;2024-03-23T19:13:56;4.70;;;1.90;;
4430;SDS011;2228;48.140;11.488;2024-03-23T19:16:23;4.65;;;2.05;;
4430;SDS011;2228;48.140;11.488;2024-03-23T19:18:50;6.35;;;1.95;;
4430;SDS011;2228;48.140;11.488;2024-03-23T19:21:17;4.63;;;1.50;;
4430;SDS011;2228;48.140;11.488;2024-03-23T19:23:44;3.10;;;1.40;;
4430;SDS011;2228;48.140;11.488;2024-03-23T19:26:12;4.30;;;2.05;;
4430;SDS011;2228;48.140;11.488;2024-03-23T19:28:39;3.90;;;1.90;;
4430;SDS011;2228;48.140;11.488;2024-03-23T19:31:06;6.93;;;1.95;;
4430;SDS011;2228;48.140;11.488;2024-03-23T19:33:32;5.65;;;2.10;;
4430;SDS011;2228;48.140;11.488;2024-03-23T19:36:00;5.72;;;2.20;;
4430;SDS011;2228;48.140;11.488;2024-03-23T19:38:30;6.35;;;2.90;;
4430;SDS011;2228;48.140;11.488;2024-03-23T19:40:57;5.82;;;3.40;;
4430;SDS011;2228;48.140;11.488;2024-03-23T19:43:26;9.30;;;3.60;;
4430;SDS011;2228;48.140;11.488;2024-03-23T19:45:53;15.50;;;5.00;;
4430;SDS011;2228;48.140;11.488;2024-03-23T19:48:20;10.70;;;4.05;;
4430;SDS011;2228;48.140;11.488;2024-03-23T19:50:53;10.50;;;4.00;;
4430;SDS011;2228;48.140;11.488;2024-03-23T19:53:20;7.78;;;4.15;;
4430;SDS011;2228;48.140;11.488;2024-03-23T19:55:52;9.27;;;3.88;;
4430;SDS011;2228;48.140;11.488;2024-03-23T19:58:18;7.75;;;3.92;;
4430;SDS011;2228;48.140;11.488;2024-03-23T20:00:50;7.95;;;3.70;;
4430;SDS011;2228;48.140;11.488;2024-03-23T20:03:16;6.57;;;3.47;;
4430;SDS011;2228;48.140;11.488;2024-03-23T20:05:45;10.40;;;4.95;;
4430;SDS011;2228;48.140;11.488;2024-03-23T20:08:11;10.13;;;4.53;;
4430;SDS011;2228;48.140;11.488;2024-03-23T20:10:45;11.95;;;4.93;;
4430;SDS011;2228;48.140;11.488;2024-03-23T20:13:11;10.32;;;5.10;;
4430;SDS011;2228;48.140;11.488;2024-03-23T20:15:38;7.55;;;3.78;;
4430;SDS011;2228;48.140;11.488;2024-03-23T20:18:06;7.10;;;3.25;;
4430;SDS011;2228;48.140;11.488;2024-03-23T20:20:33;8.52;;;4.28;;
4430;SDS011;2228;48.140;11.488;2024-03-23T20:23:00;7.03;;;3.83;;
4430;SDS011;2228;48.140;11.488;2024-03-23T20:25:28;9.85;;;5.10;;
4430;SDS011;2228;48.140;11.488;2024-03-23T20:27:54;7.53;;;4.60;;
4430;SDS011;2228;48.140;11.488;2024-03-23T20:30:21;9.25;;;5.07;;
4430;SDS011;2228;48.140;11.488;2024-03-23T20:32:47;11.43;;;4.50;;
4430;SDS011;2228;48.140;11.488;2024-03-23T20:35:18;7.27;;;3.20;;
4430;SDS011;2228;48.140;11.488;2024-03-23T20:37:45;7.32;;;2.80;;
4430;SDS011;2228;48.140;11.488;2024-03-23T20:40:12;9.80;;;2.67;;
4430;SDS011;2228;48.140;11.488;2024-03-23T20:42:38;5.57;;;2.50;;
4430;SDS011;2228;48.140;11.488;2024-03-23T20:45:06;6.00;;;2.42;;
4430;SDS011;2228;48.140;11.488;2024-03-23T20:47:32;5.72;;;2.25;;
4430;SDS011;2228;48.140;11.488;2024-03-23T20:50:02;4.68;;;2.28;;
4430;SDS011;2228;48.140;11.488;2024-03-23T20:52:31;5.43;;;2.77;;
4430;SDS011;2228;48.140;11.488;2024-03-23T20:54:59;7.20;;;2.50;;
4430;SDS011;2228;48.140;11.488;2024-03-23T20:57:26;7.10;;;2.20;;
4430;SDS011;2228;48.140;11.488;2024-03-23T20:59:53;5.70;;;2.65;;
4430;SDS011;2228;48.140;11.488;2024-03-23T21:02:21;5.03;;;1.70;;
4430;SDS011;2228;48.140;11.488;2024-03-23T21:04:48;5.28;;;1.90;;
4430;SDS011;2228;48.140;11.488;2024-03-23T21:07:14;3.70;;;1.60;;
4430;SDS011;2228;48.140;11.488;2024-03-23T21:09:43;3.97;;;1.70;;
4430;SDS011;2228;48.140;11.488;2024-03-23T21:12:10;7.03;;;2.00;;
4430;SDS011;2228;48.140;11.488;2024-03-23T21:14:36;5.23;;;1.80;;
4430;SDS011;2228;48.140;11.488;2024-03-23T21:17:04;2.85;;;1.10;;
4430;SDS011;2228;48.140;11.488;2024-03-23T21:19:32;3.78;;;1.45;;
4430;SDS011;2228;48.140;11.488;2024-03-23T21:22:00;3.78;;;1.30;;
4430;SDS011;2228;48.140;11.488;2024-03-23T21:24:27;2.30;;;1.45;;
4430;SDS011;2228;48.140;11.488;2024-03-23T21:26:56;1.92;;;1.10;;
4430;SDS011;2228;48.140;11.488;2024-03-23T21:29:22;2.22;;;1.30;;
4430;SDS011;2228;48.140;11.488;2024-03-23T21:31:50;3.28;;;1.40;;
4430;SDS011;2228;48.140;11.488;2024-03-23T21:34:18;4.20;;;1.30;;
4430;SDS011;2228;48.140;11.488;2024-03-23T21:36:47;4.00;;;1.60;;
4430;SDS011;2228;48.140;11.488;2024-03-23T21:39:14;2.30;;;1.15;;
4430;SDS011;2228;48.140;11.488;2024-03-23T21:41:42;4.68;;;1.40;;
4430;SDS011;2228;48.140;11.488;2024-03-23T21:44:10;5.40;;;1.35;;
4430;SDS011;2228;48.140;11.488;2024-03-23T21:46:38;3.70;;;1.30;;
4430;SDS011;2228;48.140;11.488;2024-03-23T21:49:05;3.92;;;1.30;;
4430;SDS011;2228;48.140;11.488;2024-03-23T21:51:32;6.60;;;1.40;;
4430;SDS011;2228;48.140;11.488;2024-03-23T21:54:00;2.13;;;1.20;;
4430;SDS011;2228;48.140;11.488;2024-03-23T21:56:28;5.50;;;1.30;;
4430;SDS011;2228;48.140;11.488;2024-03-23T21:58:54;2.83;;;1.20;;
4430;SDS011;2228;48.140;11.488;2024-03-23T22:01:23;2.20;;;0.90;;
4430;SDS011;2228;48.140;11.488;2024-03-23T22:03:49;2.72;;;0.93;;
4430;SDS011;2228;48.140;11.488;2024-03-23T22:06:18;4.00;;;1.10;;
4430;SDS011;2228;48.140;11.488;2024-03-23T22:08:44;4.68;;;1.08;;
4430;SDS011;2228;48.140;11.488;2024-03-23T22:11:12;4.68;;;0.90;;
4430;SDS011;2228;48.140;11.488;2024-03-23T22:13:38;3.80;;;0.80;;
4430;SDS011;2228;48.140;11.488;2024-03-23T22:16:07;5.15;;;0.88;;
4430;SDS011;2228;48.140;11.488;2024-03-23T22:18:35;2.08;;;0.80;;
4430;SDS011;2228;48.140;11.488;2024-03-23T22:21:03;2.13;;;1.00;;
4430;SDS011;2228;48.140;11.488;2024-03-23T22:23:35;2.93;;;0.80;;
4430;SDS011;2228;48.140;11.488;2024-03-23T22:26:39;2.42;;;0.80;;
4430;SDS011;2228;48.140;11.488;2024-03-23T22:29:11;1.67;;;0.73;;
4430;SDS011;2228;48.140;11.488;2024-03-23T22:31:37;2.20;;;1.10;;
4430;SDS011;2228;48.140;11.488;2024-03-23T22:34:07;1.95;;;0.80;;
4430;SDS011;2228;48.140;11.488;2024-03-23T22:36:33;2.05;;;1.00;;
4430;SDS011;2228;48.140;11.488;2024-03-23T22:39:02;2.77;;;0.80;;
4430;SDS011;2228;48.140;11.488;2024-03-23T22:41:29;2.17;;;0.70;;
4430;SDS011;2228;48.140;11.488;2024-03-23T22:43:57;1.40;;;0.80;;
4430;SDS011;2228;48.140;11.488;2024-03-23T22:46:23;3.05;;;0.80;;
4430;SDS011;2228;48.140;11.488;2024-03-23T22:48:51;1.75;;;0.82;;
4430;SDS011;2228;48.140;11.488;2024-03-23T22:51:19;1.73;;;0.80;;
4430;SDS011;2228;48.140;11.488;2024-03-23T22:53:50;2.47;;;0.80;;
4430;SDS011;2228;48.140;11.488;2024-03-23T22:56:17;4.15;;;0.90;;
4430;SDS011;2228;48.140;11.488;2024-03-23T22:58:50;1.90;;;0.90;;
4430;SDS011;2228;48.140;11.488;2024-03-23T23:01:16;3.40;;;1.30;;
4430;SDS011;2228;48.140;11.488;2024-03-23T23:03:54;1.30;;;0.90;;
4430;SDS011;2228;48.140;11.488;2024-03-23T23:09:30;3.05;;;0.90;;
4430;SDS011;2228;48.140;11.488;2024-03-23T23:12:01;3.20;;;1.30;;
4430;SDS011;2228;48.140;11.488;2024-03-23T23:14:28;1.90;;;1.00;;
4430;SDS011;2228;48.140;11.488;2024-03-23T23:16:56;2.75;;;1.08;;
4430;SDS011;2228;48.140;11.488;2024-03-23T23:19:23;1.42;;;0.85;;
4430;SDS011;2228;48.140;11.488;2024-03-23T23:21:54;2.97;;;0.80;;
4430;SDS011;2228;48.140;11.488;2024-03-23T23:24:21;2.58;;;0.90;;
4430;SDS011;2228;48.140;11.488;2024-03-23T23:26:55;1.60;;;0.98;;
4430;SDS011;2228;48.140;11.488;2024-03-23T23:29:21;1.60;;;0.90;;
4430;SDS011;2228;48.140;11.488;2024-03-23T23:31:49;2.50;;;0.90;;
4430;SDS011;2228;48.140;11.488;2024-03-23T23:34:16;1.50;;;0.70;;
4430;SDS011;2228;48.140;11.488;2024-03-23T23:36:45;1.57;;;0.80;;
4430;SDS011;2228;48.140;11.488;2024-03-23T23:39:11;1.70;;;1.00;;
4430;SDS011;2228;48.140;11.488;2024-03-23T23:41:39;1.20;;;0.70;;
4430;SDS011;2228;48.140;11.488;2024-03-23T23:44:08;1.20;;;0.90;;
4430;SDS011;2228;48.140;11.488;2024-03-23T23:46:36;2.80;;;0.80;;
4430;SDS011;2228;48.140;11.488;2024-03-23T23:49:02;1.50;;;0.93;;